createdAt,value
2018-06-18T00:01:24.201Z,15.50
2018-06-18T00:03:52.399Z,15.50
2018-06-18T00:06:20.596Z,15.50
2018-06-18T00:08:48.974Z,15.50
2018-06-18T00:11:17.200Z,15.50
2018-06-18T00:13:45.420Z,15.60
2018-06-18T00:16:13.649Z,15.60
2018-06-18T00:18:41.855Z,15.60
2018-06-18T00:21:10.046Z,15.60
2018-06-18T00:23:38.223Z,15.60
2018-06-18T00:26:06.428Z,15.60
2018-06-18T00:28:34.636Z,15.60
2018-06-18T00:31:02.852Z,15.60
2018-06-18T00:33:31.076Z,15.60
2018-06-18T00:35:59.327Z,15.60
2018-06-18T00:38:27.516Z,15.60
2018-06-18T00:40:55.707Z,15.60
2018-06-18T00:43:23.933Z,15.60
2018-06-18T00:45:52.128Z,15.60
2018-06-18T00:48:20.336Z,15.60
2018-06-18T00:50:48.631Z,15.60
2018-06-18T00:53:16.835Z,15.60
2018-06-18T00:55:56.353Z,15.60
2018-06-18T00:58:24.580Z,15.50
2018-06-18T01:00:52.994Z,15.50
2018-06-18T01:03:21.188Z,15.50
2018-06-18T01:05:49.392Z,15.50
2018-06-18T01:08:17.663Z,15.50
2018-06-18T01:10:45.824Z,15.50
2018-06-18T01:13:14.016Z,15.50
2018-06-18T01:15:42.226Z,15.50
2018-06-18T01:18:10.425Z,15.50
2018-06-18T01:20:38.632Z,15.40
2018-06-18T01:24:20.266Z,15.50
2018-06-18T01:26:48.490Z,15.40
2018-06-18T01:29:16.676Z,15.40
2018-06-18T01:31:44.903Z,15.30
2018-06-18T01:34:17.295Z,15.30
2018-06-18T01:36:45.508Z,15.40
2018-06-18T01:39:13.701Z,15.40
2018-06-18T01:41:41.901Z,15.50
2018-06-18T01:46:38.044Z,15.50
2018-06-18T01:49:06.279Z,15.50
2018-06-18T01:51:34.475Z,15.50
2018-06-18T01:54:02.675Z,15.50
2018-06-18T01:56:30.883Z,15.50
2018-06-18T01:58:59.088Z,15.50
2018-06-18T02:01:27.320Z,15.50
2018-06-18T02:03:55.548Z,15.40
2018-06-18T02:06:23.784Z,15.40
2018-06-18T02:08:52.004Z,15.40
2018-06-18T02:11:20.215Z,15.30
2018-06-18T02:13:48.399Z,15.30
2018-06-18T02:18:44.552Z,15.30
2018-06-18T02:21:12.768Z,15.30
2018-06-18T02:23:40.983Z,15.30
2018-06-18T02:26:10.005Z,15.30
2018-06-18T02:28:43.408Z,15.30
2018-06-18T02:31:17.095Z,15.40
2018-06-18T02:33:50.828Z,15.40
2018-06-18T02:36:24.319Z,15.30
2018-06-18T02:38:57.941Z,15.30
2018-06-18T02:41:26.145Z,15.30
2018-06-18T02:43:54.349Z,15.30
2018-06-18T02:46:22.685Z,15.30
2018-06-18T02:48:50.896Z,15.30
2018-06-18T02:51:19.104Z,15.30
2018-06-18T02:53:47.380Z,15.30
2018-06-18T02:56:15.903Z,15.30
2018-06-18T02:58:44.108Z,15.30
2018-06-18T03:01:12.318Z,15.30
2018-06-18T03:06:08.457Z,15.30
2018-06-18T03:08:36.665Z,15.30
2018-06-18T03:11:04.904Z,15.30
2018-06-18T03:13:33.105Z,15.30
2018-06-18T03:16:01.296Z,15.30
2018-06-18T03:18:35.664Z,15.30
2018-06-18T03:23:42.612Z,15.30
2018-06-18T03:26:16.260Z,15.30
2018-06-18T03:28:49.812Z,15.30
2018-06-18T03:31:18.021Z,15.20
2018-06-18T03:33:46.268Z,15.10
2018-06-18T03:36:14.472Z,15.10
2018-06-18T03:38:42.656Z,15.20
2018-06-18T03:41:10.876Z,15.20
2018-06-18T03:43:43.169Z,15.20
2018-06-18T03:46:11.357Z,15.20
2018-06-18T03:48:39.584Z,15.20
2018-06-18T03:51:07.792Z,15.20
2018-06-18T03:53:35.983Z,15.30
2018-06-18T03:58:32.203Z,15.30
2018-06-18T04:01:46.547Z,15.30
2018-06-18T04:04:20.365Z,15.30
2018-06-18T04:06:54.052Z,15.30
2018-06-18T04:10:27.472Z,15.30
2018-06-18T04:12:55.688Z,15.20
2018-06-18T04:15:23.892Z,15.10
2018-06-18T04:17:52.116Z,15.00
2018-06-18T04:20:20.304Z,14.90
2018-06-18T04:22:48.569Z,14.80
2018-06-18T04:25:17.001Z,14.80
2018-06-18T04:30:13.443Z,14.80
2018-06-18T04:32:41.635Z,14.80
2018-06-18T04:35:10.955Z,14.80
2018-06-18T04:37:39.237Z,14.90
2018-06-18T04:40:07.742Z,15.00
2018-06-18T04:42:41.395Z,15.20
2018-06-18T04:45:15.097Z,15.30
2018-06-18T04:47:48.748Z,15.60
2018-06-18T04:50:22.460Z,15.80
2018-06-18T04:52:50.694Z,16.00
2018-06-18T04:55:18.909Z,16.20
2018-06-18T04:57:47.116Z,16.40
2018-06-18T05:00:32.194Z,16.60
2018-06-18T05:05:28.362Z,16.90
2018-06-18T05:08:07.428Z,17.00
2018-06-18T05:10:35.644Z,17.20
2018-06-18T05:13:03.857Z,17.40
2018-06-18T05:15:36.652Z,17.60
2018-06-18T05:18:04.998Z,17.70
2018-06-18T05:20:33.203Z,17.90
2018-06-18T05:23:01.412Z,17.90
2018-06-18T05:25:30.821Z,18.00
2018-06-18T05:27:59.041Z,18.10
2018-06-18T05:30:29.581Z,18.20
2018-06-18T05:32:57.844Z,18.30
2018-06-18T05:35:26.859Z,18.40
2018-06-18T05:37:58.703Z,18.50
2018-06-18T05:40:26.956Z,18.60
2018-06-18T05:42:55.144Z,18.60
2018-06-18T05:45:24.048Z,18.70
2018-06-18T05:47:52.251Z,18.70
2018-06-18T05:50:20.562Z,18.70
2018-06-18T05:52:48.688Z,18.80
2018-06-18T05:55:16.904Z,18.80
2018-06-18T05:57:45.157Z,18.90
2018-06-18T06:00:13.356Z,18.90
2018-06-18T06:02:41.688Z,19.00
2018-06-18T06:05:09.939Z,19.00
2018-06-18T06:07:38.128Z,19.10
2018-06-18T06:10:06.340Z,19.20
2018-06-18T06:12:34.564Z,19.30
2018-06-18T06:15:02.877Z,19.40
2018-06-18T06:17:31.071Z,19.40
2018-06-18T06:19:59.297Z,19.40
2018-06-18T06:22:27.682Z,19.60
2018-06-18T06:27:23.813Z,19.70
2018-06-18T06:29:52.095Z,19.80
2018-06-18T06:34:52.649Z,19.90
2018-06-18T06:37:20.872Z,20.10
2018-06-18T06:39:49.063Z,20.10
2018-06-18T06:42:18.515Z,20.20
2018-06-18T06:44:46.896Z,20.20
2018-06-18T06:47:15.415Z,20.30
2018-06-18T06:49:43.909Z,20.30
2018-06-18T06:52:12.192Z,20.40
2018-06-18T06:57:08.412Z,20.40
2018-06-18T06:59:36.596Z,20.50
2018-06-18T07:02:04.808Z,20.60
2018-06-18T07:04:33.041Z,20.50
2018-06-18T07:09:29.312Z,20.50
2018-06-18T07:11:57.499Z,20.50
2018-06-18T07:14:25.693Z,20.50
2018-06-18T07:16:53.907Z,20.50
2018-06-18T07:19:22.091Z,20.50
2018-06-18T07:21:50.293Z,20.40
2018-06-18T07:24:18.489Z,20.30
2018-06-18T07:26:46.700Z,20.20
2018-06-18T07:29:14.893Z,20.20
2018-06-18T07:31:43.119Z,20.10
2018-06-18T07:34:11.333Z,20.10
2018-06-18T07:36:39.560Z,20.10
2018-06-18T07:39:08.128Z,20.00
2018-06-18T07:41:36.329Z,20.00
2018-06-18T07:44:04.545Z,19.90
2018-06-18T07:46:32.768Z,19.80
2018-06-18T07:49:00.952Z,19.70
2018-06-18T07:51:29.210Z,19.60
2018-06-18T07:53:57.358Z,19.50
2018-06-18T07:56:25.747Z,19.60
2018-06-18T07:58:53.948Z,19.70
2018-06-18T08:01:22.145Z,19.90
2018-06-18T08:03:50.344Z,20.20
2018-06-18T08:06:18.540Z,20.50
2018-06-18T08:08:47.641Z,20.70
2018-06-18T08:11:15.826Z,20.70
2018-06-18T08:13:44.116Z,20.70
2018-06-18T08:16:12.301Z,20.70
2018-06-18T08:18:40.498Z,20.70
2018-06-18T08:21:08.696Z,20.80
2018-06-18T08:23:36.925Z,20.80
2018-06-18T08:26:05.166Z,21.00
2018-06-18T08:28:33.460Z,21.10
2018-06-18T08:31:01.692Z,21.10
2018-06-18T08:33:29.909Z,20.90
2018-06-18T08:35:58.124Z,20.80
2018-06-18T08:38:26.427Z,20.70
2018-06-18T08:40:54.704Z,20.80
2018-06-18T08:43:23.974Z,21.00
2018-06-18T08:45:52.168Z,21.30
2018-06-18T08:48:25.976Z,21.50
2018-06-18T08:53:33.092Z,21.30
2018-06-18T08:56:06.730Z,21.20
2018-06-18T08:58:40.268Z,21.20
2018-06-18T09:01:13.692Z,21.10
2018-06-18T09:03:47.507Z,21.20
2018-06-18T09:06:15.733Z,21.20
2018-06-18T09:08:49.735Z,21.20
2018-06-18T09:11:19.189Z,21.30
2018-06-18T09:13:47.381Z,21.40
2018-06-18T09:16:15.593Z,21.50
2018-06-18T09:18:43.815Z,21.70
2018-06-18T09:21:12.036Z,21.90
2018-06-18T09:23:40.231Z,21.90
2018-06-18T09:26:08.408Z,21.90
2018-06-18T09:28:36.632Z,22.00
2018-06-18T09:31:04.843Z,22.00
2018-06-18T09:33:33.093Z,22.00
2018-06-18T09:36:01.284Z,22.00
2018-06-18T09:38:29.520Z,22.00
2018-06-18T09:40:57.704Z,22.00
2018-06-18T09:43:25.924Z,22.00
2018-06-18T09:45:54.128Z,21.90
2018-06-18T09:48:26.580Z,21.70
2018-06-18T09:51:00.226Z,21.40
2018-06-18T09:53:33.934Z,21.30
2018-06-18T09:58:40.964Z,21.30
2018-06-18T10:01:16.064Z,21.50
2018-06-18T10:03:44.400Z,21.80
2018-06-18T10:06:12.895Z,22.00
2018-06-18T10:08:41.146Z,22.30
2018-06-18T10:11:09.310Z,22.50
2018-06-18T10:13:37.496Z,22.70
2018-06-18T10:16:06.111Z,22.90
2018-06-18T10:18:34.309Z,22.80
2018-06-18T10:21:02.531Z,22.60
2018-06-18T10:23:30.737Z,22.30
2018-06-18T10:25:58.944Z,22.10
2018-06-18T10:28:27.157Z,22.00
2018-06-18T10:30:55.363Z,21.90
2018-06-18T10:33:28.736Z,21.90
2018-06-18T10:36:02.405Z,21.90
2018-06-18T10:38:36.040Z,22.10
2018-06-18T10:41:09.548Z,22.30
2018-06-18T10:43:38.305Z,22.50
2018-06-18T10:46:06.504Z,22.60
2018-06-18T10:48:34.696Z,22.70
2018-06-18T10:51:02.899Z,22.50
2018-06-18T10:53:31.109Z,22.40
2018-06-18T10:55:59.328Z,22.20
2018-06-18T11:01:02.428Z,22.20
2018-06-18T11:03:30.663Z,22.20
2018-06-18T11:06:04.227Z,22.40
2018-06-18T11:08:32.544Z,22.50
2018-06-18T11:11:00.767Z,22.60
2018-06-18T11:13:28.967Z,22.60
2018-06-18T11:15:57.308Z,22.60
2018-06-18T11:18:30.840Z,22.60
2018-06-18T11:21:04.591Z,22.70
2018-06-18T11:23:38.156Z,22.80
2018-06-18T11:26:11.836Z,23.10
2018-06-18T11:28:40.081Z,23.30
2018-06-18T11:31:08.266Z,23.50
2018-06-18T11:36:04.452Z,23.70
2018-06-18T11:38:32.657Z,23.70
2018-06-18T11:41:01.007Z,23.70
2018-06-18T11:43:29.238Z,23.70
2018-06-18T11:45:57.516Z,23.40
2018-06-18T11:48:25.685Z,23.20
2018-06-18T11:50:53.900Z,23.00
2018-06-18T11:53:22.131Z,22.90
2018-06-18T11:55:50.768Z,22.80
2018-06-18T11:58:24.067Z,22.90
2018-06-18T12:00:57.721Z,23.00
2018-06-18T12:03:31.276Z,23.10
2018-06-18T12:06:04.804Z,23.30
2018-06-18T12:08:38.401Z,23.30
2018-06-18T12:13:34.540Z,23.40
2018-06-18T12:16:02.802Z,23.40
2018-06-18T12:18:31.000Z,23.30
2018-06-18T12:20:59.268Z,23.40
2018-06-18T12:23:27.456Z,23.30
2018-06-18T12:25:55.648Z,23.30
2018-06-18T12:28:23.864Z,23.30
2018-06-18T12:30:52.091Z,23.20
2018-06-18T12:33:20.300Z,23.20
2018-06-18T12:35:48.516Z,23.20
2018-06-18T12:38:16.755Z,23.30
2018-06-18T12:40:45.021Z,23.30
2018-06-18T12:43:14.298Z,23.30
2018-06-18T12:45:48.669Z,23.40
2018-06-18T12:48:22.420Z,23.40
2018-06-18T12:50:56.204Z,23.50
2018-06-18T12:56:03.202Z,23.60
2018-06-18T12:58:31.420Z,23.80
2018-06-18T13:01:00.410Z,24.00
2018-06-18T13:03:28.658Z,24.10
2018-06-18T13:05:56.830Z,24.20
2018-06-18T13:08:25.026Z,24.30
2018-06-18T13:10:53.223Z,24.20
2018-06-18T13:13:21.432Z,24.30
2018-06-18T13:15:49.640Z,24.30
2018-06-18T13:18:17.859Z,24.30
2018-06-18T13:20:46.056Z,24.40
2018-06-18T13:23:14.280Z,24.60
2018-06-18T13:25:42.477Z,24.80
2018-06-18T13:28:16.700Z,25.00
2018-06-18T13:30:45.518Z,25.10
2018-06-18T13:33:13.809Z,25.20
2018-06-18T13:35:42.089Z,25.20
2018-06-18T13:38:15.814Z,25.00
2018-06-18T13:40:49.568Z,24.80
2018-06-18T13:44:25.183Z,24.70
2018-06-18T13:46:58.876Z,24.90
2018-06-18T13:49:32.492Z,25.10
2018-06-18T13:52:00.708Z,25.20
2018-06-18T13:54:28.924Z,25.30
2018-06-18T13:56:57.144Z,25.40
2018-06-18T13:59:25.331Z,25.50
2018-06-18T14:01:53.541Z,25.70
2018-06-18T14:04:21.752Z,26.00
2018-06-18T14:06:49.957Z,26.20
2018-06-18T14:09:18.176Z,26.00
2018-06-18T14:11:46.385Z,25.90
2018-06-18T14:14:14.609Z,26.00
2018-06-18T14:16:42.823Z,26.00
2018-06-18T14:19:16.401Z,26.20
2018-06-18T14:21:44.592Z,26.20
2018-06-18T14:24:12.792Z,26.00
2018-06-18T14:26:40.975Z,25.90
2018-06-18T14:29:13.416Z,26.10
2018-06-18T14:31:47.051Z,26.50
2018-06-18T14:35:22.172Z,26.80
2018-06-18T14:37:56.356Z,26.90
2018-06-18T14:40:24.598Z,26.50
2018-06-18T14:42:52.794Z,26.40
2018-06-18T14:45:21.005Z,26.60
2018-06-18T14:47:49.226Z,27.10
2018-06-18T14:50:17.472Z,27.60
2018-06-18T14:52:45.689Z,28.00
2018-06-18T14:55:14.669Z,28.20
2018-06-18T14:57:43.308Z,28.50
2018-06-18T15:00:15.739Z,28.80
2018-06-18T15:02:43.987Z,29.10
2018-06-18T15:05:12.153Z,29.30
2018-06-18T15:07:40.499Z,29.50
2018-06-18T15:12:43.447Z,29.90
2018-06-18T15:15:17.171Z,30.00
2018-06-18T15:17:45.456Z,30.00
2018-06-18T15:20:13.644Z,30.00
2018-06-18T15:22:44.757Z,30.00
2018-06-18T15:25:14.833Z,29.80
2018-06-18T15:27:43.020Z,29.70
2018-06-18T15:30:11.476Z,29.30
2018-06-18T15:32:39.705Z,28.80
2018-06-18T15:35:07.928Z,28.40
2018-06-18T15:37:36.140Z,28.20
2018-06-18T15:40:04.405Z,28.00
2018-06-18T15:42:32.625Z,27.70
2018-06-18T15:45:00.856Z,27.50
2018-06-18T15:47:29.119Z,27.50
2018-06-18T15:49:57.327Z,27.70
2018-06-18T15:52:25.620Z,28.00
2018-06-18T15:54:54.072Z,28.20
2018-06-18T15:57:22.281Z,28.30
2018-06-18T15:59:50.488Z,28.40
2018-06-18T16:02:18.774Z,28.40
2018-06-18T16:04:46.904Z,28.60
2018-06-18T16:07:15.108Z,28.80
2018-06-18T16:09:43.300Z,29.00
2018-06-18T16:12:11.517Z,29.20
2018-06-18T16:14:39.703Z,29.30
2018-06-18T16:17:07.972Z,29.30
2018-06-18T16:19:36.305Z,29.00
2018-06-18T16:22:04.508Z,28.70
2018-06-18T16:24:32.835Z,28.40
2018-06-18T16:27:01.012Z,28.10
2018-06-18T16:29:29.235Z,27.80
2018-06-18T16:31:57.429Z,28.00
2018-06-18T16:34:25.684Z,28.20
2018-06-18T16:36:53.890Z,28.30
2018-06-18T16:39:22.076Z,28.80
2018-06-18T16:41:50.333Z,28.60
2018-06-18T16:44:18.539Z,27.90
2018-06-18T16:46:46.760Z,27.20
2018-06-18T16:49:14.971Z,26.50
2018-06-18T16:51:43.199Z,25.90
2018-06-18T16:54:11.376Z,25.70
2018-06-18T16:56:39.585Z,26.10
2018-06-18T16:59:07.815Z,27.00
2018-06-18T17:01:36.036Z,28.30
2018-06-18T17:04:04.245Z,29.50
2018-06-18T17:06:32.544Z,30.50
2018-06-18T17:09:00.772Z,31.30
2018-06-18T17:11:28.964Z,31.60
2018-06-18T17:13:57.193Z,31.40
2018-06-18T17:16:25.465Z,31.40
2018-06-18T17:18:53.672Z,31.70
2018-06-18T17:21:21.884Z,32.20
2018-06-18T17:23:50.463Z,32.60
2018-06-18T17:26:18.657Z,32.90
2018-06-18T17:28:46.848Z,33.20
2018-06-18T17:31:15.049Z,33.20
2018-06-18T17:33:43.260Z,32.80
2018-06-18T17:36:11.469Z,32.40
2018-06-18T17:38:39.703Z,32.40
2018-06-18T17:41:07.920Z,32.50
2018-06-18T17:43:36.148Z,32.10
2018-06-18T17:46:04.396Z,31.60
2018-06-18T17:48:32.608Z,31.30
2018-06-18T17:51:00.936Z,31.10
2018-06-18T17:53:29.883Z,31.20
2018-06-18T17:55:58.112Z,31.30
2018-06-18T17:58:26.376Z,31.30
2018-06-18T18:00:54.580Z,31.40
2018-06-18T18:03:22.778Z,31.50
2018-06-18T18:05:51.036Z,31.50
2018-06-18T18:08:19.228Z,31.50
2018-06-18T18:10:47.436Z,31.50
2018-06-18T18:13:15.771Z,31.30
2018-06-18T18:15:43.891Z,31.20
2018-06-18T18:18:12.197Z,31.20
2018-06-18T18:20:40.407Z,31.30
2018-06-18T18:23:08.652Z,31.30
2018-06-18T18:25:36.854Z,31.00
2018-06-18T18:28:05.384Z,30.70
2018-06-18T18:30:33.603Z,30.40
2018-06-18T18:33:01.820Z,30.20
2018-06-18T18:35:30.052Z,30.00
2018-06-18T18:37:58.280Z,29.80
2018-06-18T18:40:26.489Z,29.30
2018-06-18T18:42:54.713Z,28.70
2018-06-18T18:45:23.505Z,27.70
2018-06-18T18:47:51.668Z,26.80
2018-06-18T18:50:19.856Z,25.90
2018-06-18T18:52:48.068Z,25.10
2018-06-18T18:55:37.976Z,24.40
2018-06-18T18:58:18.977Z,23.80
2018-06-18T19:00:47.977Z,23.20
2018-06-18T19:03:17.938Z,22.70
2018-06-18T19:05:46.903Z,22.30
2018-06-18T19:08:17.833Z,21.90
2018-06-18T19:10:46.392Z,21.60
2018-06-18T19:13:18.949Z,21.40
2018-06-18T19:15:48.256Z,21.10
2018-06-18T19:18:16.487Z,20.90
2018-06-18T19:20:49.212Z,20.70
2018-06-18T19:23:17.439Z,20.50
2018-06-18T19:25:45.642Z,20.30
2018-06-18T19:28:13.865Z,20.10
2018-06-18T19:30:44.544Z,20.00
2018-06-18T19:33:15.560Z,19.80
2018-06-18T19:35:43.796Z,19.70
2018-06-18T19:38:12.264Z,19.50
2018-06-18T19:40:40.524Z,19.40
2018-06-18T19:43:08.725Z,19.30
2018-06-18T19:45:40.188Z,19.10
2018-06-18T19:48:11.846Z,19.00
2018-06-18T19:50:40.117Z,18.90
2018-06-18T19:53:08.313Z,18.80
2018-06-18T19:55:36.520Z,18.60
2018-06-18T19:58:04.813Z,18.50
2018-06-18T20:00:36.712Z,18.40
2018-06-18T20:03:04.914Z,18.30
2018-06-18T20:08:04.433Z,18.10
2018-06-18T20:10:32.604Z,18.00
2018-06-18T20:13:00.945Z,17.90
2018-06-18T20:15:29.112Z,17.80
2018-06-18T20:17:57.336Z,17.70
2018-06-18T20:20:25.557Z,17.60
2018-06-18T20:22:53.807Z,17.50
2018-06-18T20:25:29.405Z,17.40
2018-06-18T20:27:57.592Z,17.30
2018-06-18T20:30:25.816Z,17.20
2018-06-18T20:32:54.040Z,17.10
2018-06-18T20:35:25.773Z,17.00
2018-06-18T20:37:54.791Z,16.80
2018-06-18T20:40:23.039Z,16.70
2018-06-18T20:42:51.572Z,16.60
2018-06-18T20:45:19.767Z,16.50
2018-06-18T20:47:47.990Z,16.40
2018-06-18T20:50:16.225Z,16.20
2018-06-18T20:52:44.783Z,16.10
2018-06-18T20:55:12.976Z,16.00
2018-06-18T20:57:41.219Z,15.90
2018-06-18T21:00:09.435Z,15.80
2018-06-18T21:02:37.664Z,15.70
2018-06-18T21:05:05.916Z,15.60
2018-06-18T21:07:34.427Z,15.50
2018-06-18T21:10:02.727Z,15.40
2018-06-18T21:12:30.976Z,15.30
2018-06-18T21:14:59.981Z,15.20
2018-06-18T21:17:28.196Z,15.10
2018-06-18T21:19:56.436Z,15.10
2018-06-18T21:22:24.706Z,15.00
2018-06-18T21:24:52.928Z,14.90
2018-06-18T21:27:21.136Z,14.90
2018-06-18T21:29:49.356Z,14.90
2018-06-18T21:32:17.537Z,14.80
2018-06-18T21:34:45.784Z,14.80
2018-06-18T21:37:13.971Z,14.70
2018-06-18T21:39:42.171Z,14.70
2018-06-18T21:42:10.417Z,14.60
2018-06-18T21:44:45.656Z,14.50
2018-06-18T21:47:14.625Z,14.50
2018-06-18T21:49:42.848Z,14.40
2018-06-18T21:52:11.068Z,14.30
2018-06-18T21:54:39.269Z,14.30
2018-06-18T21:57:07.455Z,14.30
2018-06-18T21:59:35.685Z,14.30
2018-06-18T22:04:31.836Z,14.20
2018-06-18T22:07:00.070Z,14.30
2018-06-18T22:09:28.257Z,14.20
2018-06-18T22:11:56.521Z,14.20
2018-06-18T22:14:25.079Z,14.20
2018-06-18T22:16:53.341Z,14.20
2018-06-18T22:19:21.548Z,14.20
2018-06-18T22:21:49.737Z,14.20
2018-06-18T22:24:17.988Z,14.10
2018-06-18T22:26:46.180Z,14.10
2018-06-18T22:29:15.400Z,14.10
2018-06-18T22:31:43.621Z,14.00
2018-06-18T22:34:11.860Z,14.00
2018-06-18T22:36:40.066Z,14.00
2018-06-18T22:39:09.816Z,13.90
2018-06-18T22:41:38.020Z,13.90
2018-06-18T22:44:06.848Z,13.80
2018-06-18T22:46:35.080Z,13.80
2018-06-18T22:49:03.281Z,13.70
2018-06-18T22:51:31.543Z,13.70
2018-06-18T22:53:59.780Z,13.70
2018-06-18T22:56:27.969Z,13.60
2018-06-18T22:58:56.204Z,13.60
2018-06-18T23:01:24.430Z,13.60
2018-06-18T23:03:52.660Z,13.60
2018-06-18T23:06:21.139Z,13.50
2018-06-18T23:08:49.363Z,13.50
2018-06-18T23:11:17.580Z,13.50
2018-06-18T23:13:45.819Z,13.40
2018-06-18T23:16:14.016Z,13.40
2018-06-18T23:18:42.248Z,13.40
2018-06-18T23:21:10.483Z,13.40
2018-06-18T23:23:38.675Z,13.30
2018-06-18T23:26:06.897Z,13.20
2018-06-18T23:28:40.204Z,13.20
2018-06-18T23:31:08.423Z,13.20
2018-06-18T23:33:36.624Z,13.10
2018-06-18T23:36:04.920Z,13.10
2018-06-18T23:38:33.139Z,13.10
2018-06-18T23:41:01.387Z,13.10
2018-06-18T23:43:29.568Z,13.00
2018-06-18T23:45:58.135Z,13.00
2018-06-18T23:48:26.336Z,13.00
2018-06-18T23:50:54.565Z,13.00
2018-06-18T23:53:22.780Z,13.00
2018-06-18T23:55:50.984Z,13.00
2018-06-18T23:58:19.200Z,12.90
